createdAt,value
2024-05-09T00:01:25.183Z,44.36
2024-05-09T00:02:25.227Z,44.34
2024-05-09T00:03:25.170Z,44.38
2024-05-09T00:04:25.189Z,44.39
2024-05-09T00:05:25.320Z,44.33
2024-05-09T00:06:25.134Z,44.28
2024-05-09T00:07:25.135Z,44.32
2024-05-09T00:08:25.234Z,44.28
2024-05-09T00:09:25.145Z,44.33
2024-05-09T00:10:32.598Z,44.33
2024-05-09T00:11:26.307Z,44.32
2024-05-09T00:12:25.304Z,44.28
2024-05-09T00:13:25.144Z,44.34
2024-05-09T00:14:25.218Z,44.31
2024-05-09T00:15:25.170Z,44.30
2024-05-09T00:16:25.209Z,44.28
2024-05-09T00:17:25.392Z,44.25
2024-05-09T00:18:25.298Z,44.25
2024-05-09T00:19:32.963Z,44.32
2024-05-09T00:20:38.145Z,44.29
2024-05-09T00:21:33.882Z,44.29
2024-05-09T00:22:32.919Z,44.28
2024-05-09T00:23:33.072Z,44.28
2024-05-09T00:24:32.882Z,44.28
2024-05-09T00:25:32.902Z,44.29
2024-05-09T00:26:32.986Z,44.27
2024-05-09T00:27:32.907Z,44.26
2024-05-09T00:28:32.899Z,44.26
2024-05-09T00:29:33.008Z,44.24
2024-05-09T00:30:35.510Z,44.20
2024-05-09T00:31:32.878Z,44.22
2024-05-09T00:32:33.120Z,44.28
2024-05-09T00:33:33.026Z,44.29
2024-05-09T00:34:33.117Z,44.26
2024-05-09T00:35:33.079Z,44.29
2024-05-09T00:36:32.873Z,44.28
2024-05-09T00:37:32.888Z,44.23
2024-05-09T00:38:33.093Z,44.23
2024-05-09T00:39:32.899Z,44.22
2024-05-09T00:40:38.933Z,44.23
2024-05-09T00:41:34.026Z,44.24
2024-05-09T00:42:32.889Z,44.23
2024-05-09T00:43:32.989Z,44.21
2024-05-09T00:44:32.998Z,44.22
2024-05-09T00:45:32.908Z,44.21
2024-05-09T00:46:32.901Z,44.20
2024-05-09T00:47:33.198Z,44.19
2024-05-09T00:48:33.162Z,44.21
2024-05-09T00:49:33.049Z,44.19
2024-05-09T00:50:36.507Z,44.19
2024-05-09T00:51:32.915Z,44.25
2024-05-09T00:52:32.918Z,44.25
2024-05-09T00:53:33.028Z,44.27
2024-05-09T00:54:32.922Z,44.22
2024-05-09T00:55:32.904Z,44.22
2024-05-09T00:56:33.048Z,44.22
2024-05-09T00:57:32.941Z,44.21
2024-05-09T00:58:32.921Z,44.21
2024-05-09T00:59:33.003Z,44.18
2024-05-09T01:00:38.704Z,44.22
2024-05-09T01:01:34.117Z,44.24
2024-05-09T01:02:33.040Z,44.20
2024-05-09T01:03:33.212Z,44.22
2024-05-09T01:04:33.015Z,44.18
2024-05-09T01:05:33.123Z,44.20
2024-05-09T01:06:32.924Z,44.21
2024-05-09T01:07:32.941Z,44.17
2024-05-09T01:08:33.095Z,44.23
2024-05-09T01:09:32.926Z,44.27
2024-05-09T01:10:35.120Z,44.24
2024-05-09T01:11:33.037Z,44.20
2024-05-09T01:12:33.042Z,44.17
2024-05-09T01:13:32.943Z,44.19
2024-05-09T01:14:33.039Z,44.17
2024-05-09T01:15:32.942Z,44.16
2024-05-09T01:16:32.940Z,44.19
2024-05-09T01:17:33.108Z,44.19
2024-05-09T01:18:33.046Z,44.16
2024-05-09T01:19:33.107Z,44.16
2024-05-09T01:20:40.929Z,44.14
2024-05-09T01:21:33.969Z,44.22
2024-05-09T01:22:32.969Z,44.19
2024-05-09T01:23:33.070Z,44.18
2024-05-09T01:24:32.966Z,44.17
2024-05-09T01:25:32.952Z,44.15
2024-05-09T01:26:33.026Z,44.17
2024-05-09T01:27:32.979Z,44.16
2024-05-09T01:28:32.961Z,44.16
2024-05-09T01:29:33.006Z,44.18
2024-05-09T01:30:36.512Z,44.15
2024-05-09T01:31:33.034Z,44.17
2024-05-09T01:32:33.233Z,44.14
2024-05-09T01:33:33.496Z,44.16
2024-05-09T01:34:32.973Z,44.10
2024-05-09T01:35:33.025Z,44.15
2024-05-09T01:36:33.002Z,44.17
2024-05-09T01:37:32.975Z,44.15
2024-05-09T01:38:33.145Z,44.13
2024-05-09T01:39:33.008Z,44.11
2024-05-09T01:40:37.613Z,44.15
2024-05-09T01:41:34.031Z,44.13
2024-05-09T01:42:32.985Z,44.13
2024-05-09T01:43:32.989Z,44.10
2024-05-09T01:44:33.025Z,44.12
2024-05-09T01:45:33.113Z,44.16
2024-05-09T01:46:32.979Z,44.15
2024-05-09T01:47:33.302Z,44.12
2024-05-09T01:48:33.157Z,44.12
2024-05-09T01:49:33.120Z,44.11
2024-05-09T01:50:39.215Z,44.09
2024-05-09T01:51:34.048Z,44.17
2024-05-09T01:52:33.028Z,44.15
2024-05-09T01:53:33.287Z,44.12
2024-05-09T01:54:33.061Z,44.10
2024-05-09T01:55:33.053Z,44.08
2024-05-09T01:56:33.102Z,44.07
2024-05-09T01:57:33.036Z,44.10
2024-05-09T01:58:33.030Z,44.14
2024-05-09T01:59:33.231Z,44.13
2024-05-09T02:00:39.474Z,44.07
2024-05-09T02:01:55.492Z,44.07
2024-05-09T02:02:34.101Z,44.12
2024-05-09T02:03:33.178Z,44.08
2024-05-09T02:04:33.229Z,44.13
2024-05-09T02:05:33.093Z,44.09
2024-05-09T02:06:33.038Z,44.06
2024-05-09T02:07:33.048Z,44.11
2024-05-09T02:08:33.227Z,44.10
2024-05-09T02:09:33.060Z,44.08
2024-05-09T02:10:33.615Z,44.09
2024-05-09T02:11:33.125Z,44.09
2024-05-09T02:12:33.154Z,44.06
2024-05-09T02:13:33.064Z,44.08
2024-05-09T02:14:33.111Z,44.06
2024-05-09T02:15:33.071Z,44.07
2024-05-09T02:16:33.072Z,44.11
2024-05-09T02:17:33.260Z,44.08
2024-05-09T02:18:33.242Z,44.08
2024-05-09T02:19:33.416Z,44.11
2024-05-09T02:20:36.574Z,44.08
2024-05-09T02:21:33.077Z,44.09
2024-05-09T02:22:33.096Z,44.07
2024-05-09T02:23:33.152Z,44.07
2024-05-09T02:24:33.075Z,44.06
2024-05-09T02:25:33.257Z,44.12
2024-05-09T02:26:33.117Z,44.08
2024-05-09T02:27:33.107Z,44.09
2024-05-09T02:28:33.087Z,44.06
2024-05-09T02:29:33.216Z,44.09
2024-05-09T02:30:39.107Z,44.05
2024-05-09T02:31:34.109Z,44.07
2024-05-09T02:32:33.240Z,44.06
2024-05-09T02:33:33.402Z,44.03
2024-05-09T02:34:33.162Z,44.07
2024-05-09T02:35:33.201Z,44.13
2024-05-09T02:36:33.114Z,44.07
2024-05-09T02:37:33.166Z,44.08
2024-05-09T02:38:33.233Z,44.08
2024-05-09T02:39:33.105Z,44.11
2024-05-09T02:40:37.259Z,44.09
2024-05-09T02:41:34.195Z,44.09
2024-05-09T02:42:33.111Z,44.05
2024-05-09T02:43:33.122Z,44.04
2024-05-09T02:44:33.180Z,44.07
2024-05-09T02:45:33.318Z,44.08
2024-05-09T02:46:33.135Z,44.02
2024-05-09T02:47:33.225Z,44.02
2024-05-09T02:48:33.234Z,44.02
2024-05-09T02:49:33.235Z,44.00
2024-05-09T02:50:38.311Z,44.06
2024-05-09T02:51:34.256Z,44.03
2024-05-09T02:52:33.239Z,44.02
2024-05-09T02:53:33.366Z,44.04
2024-05-09T02:54:33.250Z,44.01
2024-05-09T02:55:33.338Z,44.00
2024-05-09T02:56:33.299Z,44.03
2024-05-09T02:57:33.224Z,43.96
2024-05-09T02:58:33.221Z,43.98
2024-05-09T02:59:33.345Z,44.01
2024-05-09T03:00:39.081Z,43.99
2024-05-09T03:01:34.441Z,43.98
2024-05-09T03:02:33.391Z,43.97
2024-05-09T03:03:33.607Z,43.98
2024-05-09T03:04:33.476Z,43.97
2024-05-09T03:05:33.462Z,44.00
2024-05-09T03:06:33.307Z,44.01
2024-05-09T03:07:33.315Z,44.04
2024-05-09T03:08:33.406Z,44.00
2024-05-09T03:09:33.331Z,44.01
2024-05-09T03:10:36.403Z,44.01
2024-05-09T03:11:34.512Z,44.03
2024-05-09T03:12:34.565Z,43.99
2024-05-09T03:13:33.410Z,44.00
2024-05-09T03:14:33.536Z,43.99
2024-05-09T03:15:33.542Z,44.01
2024-05-09T03:16:33.582Z,44.00
2024-05-09T03:17:33.911Z,44.02
2024-05-09T03:18:33.809Z,43.98
2024-05-09T03:19:33.799Z,44.00
2024-05-09T03:20:35.711Z,43.98
2024-05-09T03:21:33.850Z,43.99
2024-05-09T03:22:33.827Z,44.02
2024-05-09T03:23:33.844Z,43.96
2024-05-09T03:24:33.842Z,43.98
2024-05-09T03:25:34.056Z,43.99
2024-05-09T03:26:33.945Z,43.96
2024-05-09T03:27:33.843Z,43.99
2024-05-09T03:28:33.857Z,44.00
2024-05-09T03:29:33.924Z,43.98
2024-05-09T03:30:40.360Z,44.01
2024-05-09T03:31:34.841Z,44.03
2024-05-09T03:32:33.952Z,44.02
2024-05-09T03:33:34.092Z,43.98
2024-05-09T03:34:33.858Z,43.99
2024-05-09T03:35:33.884Z,43.97
2024-05-09T03:36:33.854Z,43.99
2024-05-09T03:37:33.848Z,43.94
2024-05-09T03:38:34.040Z,43.95
2024-05-09T03:39:33.930Z,43.95
2024-05-09T03:40:33.918Z,43.95
2024-05-09T03:41:34.006Z,43.94
2024-05-09T03:42:34.041Z,43.98
2024-05-09T03:43:34.071Z,43.95
2024-05-09T03:44:34.224Z,43.93
2024-05-09T03:45:34.216Z,43.96
2024-05-09T03:46:34.299Z,43.94
2024-05-09T03:47:34.619Z,43.93
2024-05-09T03:48:34.592Z,43.90
2024-05-09T03:49:34.617Z,43.92
2024-05-09T03:50:36.588Z,43.97
2024-05-09T03:51:34.513Z,43.97
2024-05-09T03:52:34.524Z,43.89
2024-05-09T03:53:34.548Z,43.91
2024-05-09T03:54:34.501Z,43.90
2024-05-09T03:55:34.484Z,43.92
2024-05-09T03:56:34.572Z,43.93
2024-05-09T03:57:34.506Z,43.90
2024-05-09T03:58:34.482Z,43.90
2024-05-09T03:59:34.541Z,43.89
2024-05-09T04:00:38.393Z,43.92
2024-05-09T04:01:35.625Z,43.92
2024-05-09T04:02:34.586Z,43.90
2024-05-09T04:03:34.615Z,43.92
2024-05-09T04:04:34.527Z,43.89
2024-05-09T04:05:35.120Z,43.90
2024-05-09T04:06:34.512Z,43.88
2024-05-09T04:07:34.501Z,43.90
2024-05-09T04:08:34.720Z,43.88
2024-05-09T04:09:34.566Z,43.90
2024-05-09T04:10:35.437Z,43.89
2024-05-09T04:11:34.787Z,43.90
2024-05-09T04:12:34.749Z,43.87
2024-05-09T04:13:34.826Z,43.92
2024-05-09T04:14:34.882Z,43.87
2024-05-09T04:15:34.937Z,43.90
2024-05-09T04:16:34.962Z,43.87
2024-05-09T04:17:35.129Z,43.93
2024-05-09T04:18:35.260Z,43.87
2024-05-09T04:19:35.148Z,43.83
2024-05-09T04:20:39.034Z,43.84
2024-05-09T04:21:36.192Z,43.85
2024-05-09T04:22:35.206Z,43.86
2024-05-09T04:23:35.219Z,43.82
2024-05-09T04:24:35.202Z,43.79
2024-05-09T04:25:35.228Z,43.86
2024-05-09T04:26:35.227Z,43.84
2024-05-09T04:27:35.184Z,43.86
2024-05-09T04:28:35.205Z,43.80
2024-05-09T04:29:35.245Z,43.83
2024-05-09T04:30:39.242Z,43.81
2024-05-09T04:31:36.291Z,43.88
2024-05-09T04:32:35.437Z,43.87
2024-05-09T04:33:43.243Z,43.92
2024-05-09T04:34:43.040Z,43.90
2024-05-09T04:35:43.640Z,43.85
2024-05-09T04:36:44.669Z,43.83
2024-05-09T04:37:43.081Z,43.82
2024-05-09T04:38:43.095Z,43.81
2024-05-09T04:39:43.039Z,43.80
2024-05-09T04:40:43.059Z,43.79
2024-05-09T04:41:43.046Z,43.83
2024-05-09T04:42:43.064Z,43.81
2024-05-09T04:43:43.070Z,43.82
2024-05-09T04:44:43.055Z,43.78
2024-05-09T04:45:43.062Z,43.76
2024-05-09T04:46:43.060Z,43.78
2024-05-09T04:47:43.314Z,43.78
2024-05-09T04:48:43.207Z,43.76
2024-05-09T04:49:43.091Z,43.77
2024-05-09T04:50:43.213Z,43.79
2024-05-09T04:51:43.197Z,43.75
2024-05-09T04:52:43.256Z,43.75
2024-05-09T04:53:43.491Z,43.79
2024-05-09T04:54:43.395Z,43.75
2024-05-09T04:55:43.523Z,43.75
2024-05-09T04:56:43.563Z,43.73
2024-05-09T04:57:43.586Z,43.76
2024-05-09T04:58:43.654Z,43.75
2024-05-09T04:59:43.744Z,43.73
2024-05-09T05:00:43.876Z,43.72
2024-05-09T05:01:43.951Z,43.72
2024-05-09T05:02:44.014Z,43.68
2024-05-09T05:03:44.186Z,43.68
2024-05-09T05:04:44.048Z,43.70
2024-05-09T05:05:45.235Z,43.67
2024-05-09T05:06:44.109Z,43.71
2024-05-09T05:07:44.211Z,43.63
2024-05-09T05:08:44.345Z,43.65
2024-05-09T05:09:44.260Z,43.65
2024-05-09T05:10:44.378Z,43.63
2024-05-09T05:11:44.572Z,43.63
2024-05-09T05:12:44.407Z,43.62
2024-05-09T05:13:44.510Z,43.60
2024-05-09T05:14:44.528Z,43.67
2024-05-09T05:15:44.575Z,43.61
2024-05-09T05:16:44.642Z,43.60
2024-05-09T05:17:44.734Z,43.61
2024-05-09T05:18:44.877Z,43.59
2024-05-09T05:19:45.104Z,43.58
2024-05-09T05:20:44.995Z,43.57
2024-05-09T05:21:44.937Z,43.56
2024-05-09T05:22:45.006Z,43.58
2024-05-09T05:23:45.101Z,43.52
2024-05-09T05:24:45.084Z,43.57
2024-05-09T05:25:45.195Z,43.52
2024-05-09T05:26:45.221Z,43.53
2024-05-09T05:27:45.244Z,43.51
2024-05-09T05:28:45.316Z,43.52
2024-05-09T05:29:45.395Z,43.47
2024-05-09T05:30:45.433Z,43.47
2024-05-09T05:31:45.545Z,43.51
2024-05-09T05:32:45.620Z,43.46
2024-05-09T05:33:45.600Z,43.49
2024-05-09T05:34:45.625Z,43.48
2024-05-09T05:35:45.638Z,43.48
2024-05-09T05:36:45.678Z,43.45
2024-05-09T05:37:45.768Z,43.44
2024-05-09T05:38:45.832Z,43.41
2024-05-09T05:39:45.836Z,43.42
2024-05-09T05:40:45.925Z,43.41
2024-05-09T05:41:45.924Z,43.39
2024-05-09T05:42:45.962Z,43.40
2024-05-09T05:43:46.119Z,43.41
2024-05-09T05:44:46.084Z,43.42
2024-05-09T05:45:46.171Z,43.40
2024-05-09T05:46:46.255Z,43.39
2024-05-09T05:47:46.567Z,43.38
2024-05-09T05:48:46.433Z,43.35
2024-05-09T05:49:46.431Z,43.33
2024-05-09T05:50:46.671Z,43.30
2024-05-09T05:51:46.460Z,43.33
2024-05-09T05:52:46.530Z,43.34
2024-05-09T05:53:46.618Z,43.33
2024-05-09T05:54:46.601Z,43.32
2024-05-09T05:55:46.704Z,43.32
2024-05-09T05:56:46.764Z,43.30
2024-05-09T05:57:46.780Z,43.28
2024-05-09T05:58:46.943Z,43.26
2024-05-09T05:59:46.908Z,43.28
2024-05-09T06:00:46.934Z,43.26
2024-05-09T06:01:47.033Z,43.28
2024-05-09T06:02:47.232Z,43.28
2024-05-09T06:03:47.458Z,43.28
2024-05-09T06:04:47.425Z,43.27
2024-05-09T06:05:47.308Z,43.27
2024-05-09T06:06:47.239Z,43.23
2024-05-09T06:07:47.336Z,43.25
2024-05-09T06:08:47.387Z,43.24
2024-05-09T06:09:49.875Z,43.23
2024-05-09T06:10:47.563Z,43.22
2024-05-09T06:11:47.523Z,43.20
2024-05-09T06:12:47.420Z,43.20
2024-05-09T06:13:47.452Z,43.18
2024-05-09T06:14:47.404Z,43.17
2024-05-09T06:15:47.406Z,43.21
2024-05-09T06:16:47.435Z,43.17
2024-05-09T06:17:47.573Z,43.16
2024-05-09T06:18:47.644Z,43.16
2024-05-09T06:19:48.753Z,43.16
2024-05-09T06:20:47.469Z,43.15
2024-05-09T06:21:47.444Z,43.14
2024-05-09T06:22:47.481Z,43.10
2024-05-09T06:23:47.456Z,43.13
2024-05-09T06:24:47.421Z,43.11
2024-05-09T06:25:47.486Z,43.10
2024-05-09T06:26:47.423Z,43.12
2024-05-09T06:27:47.433Z,43.10
2024-05-09T06:28:47.518Z,43.09
2024-05-09T06:29:47.437Z,43.11
2024-05-09T06:30:47.451Z,43.08
2024-05-09T06:31:47.461Z,43.12
2024-05-09T06:32:47.544Z,43.08
2024-05-09T06:33:47.538Z,43.07
2024-05-09T06:34:47.575Z,43.08
2024-05-09T06:35:47.476Z,43.07
2024-05-09T06:36:47.435Z,43.05
2024-05-09T06:37:47.504Z,43.05
2024-05-09T06:38:47.549Z,43.02
2024-05-09T06:39:47.448Z,43.01
2024-05-09T06:40:47.461Z,43.01
2024-05-09T06:41:47.478Z,42.99
2024-05-09T06:42:47.519Z,43.01
2024-05-09T06:43:47.600Z,43.00
2024-05-09T06:44:47.650Z,42.96
2024-05-09T06:45:48.407Z,42.95
2024-05-09T06:46:47.749Z,42.98
2024-05-09T06:47:47.815Z,42.94
2024-05-09T06:48:48.216Z,42.93
2024-05-09T06:49:47.934Z,42.93
2024-05-09T06:50:48.083Z,42.90
2024-05-09T06:51:47.943Z,42.87
2024-05-09T06:52:47.971Z,42.87
2024-05-09T06:53:48.032Z,42.89
2024-05-09T06:54:48.005Z,42.82
2024-05-09T06:55:48.165Z,42.83
2024-05-09T06:56:48.075Z,42.80
2024-05-09T06:57:48.114Z,42.81
2024-05-09T06:58:48.168Z,42.76
2024-05-09T06:59:48.155Z,42.78
2024-05-09T07:00:48.362Z,42.73
2024-05-09T07:01:48.952Z,42.72
2024-05-09T07:02:53.354Z,42.70
2024-05-09T07:03:48.322Z,42.66
2024-05-09T07:04:48.312Z,42.62
2024-05-09T07:05:49.511Z,42.63
2024-05-09T07:06:48.247Z,42.61
2024-05-09T07:07:48.261Z,42.59
2024-05-09T07:08:48.969Z,42.55
2024-05-09T07:09:48.263Z,42.53
2024-05-09T07:10:48.354Z,42.53
2024-05-09T07:11:48.391Z,42.54
2024-05-09T07:12:48.257Z,42.49
2024-05-09T07:13:48.304Z,42.48
2024-05-09T07:14:48.284Z,42.49
2024-05-09T07:15:48.252Z,42.50
2024-05-09T07:16:48.367Z,42.47
2024-05-09T07:17:48.463Z,42.47
2024-05-09T07:18:48.457Z,42.47
2024-05-09T07:19:48.391Z,42.52
2024-05-09T07:20:49.325Z,42.45
2024-05-09T07:21:48.256Z,42.48
2024-05-09T07:22:48.314Z,42.50
2024-05-09T07:23:48.327Z,42.51
2024-05-09T07:24:48.273Z,42.49
2024-05-09T07:25:48.467Z,42.50
2024-05-09T07:26:48.331Z,42.51
2024-05-09T07:27:48.292Z,42.47
2024-05-09T07:28:48.322Z,42.53
2024-05-09T07:29:48.313Z,42.49
2024-05-09T07:30:48.350Z,42.50
2024-05-09T07:31:48.310Z,42.48
2024-05-09T07:32:48.612Z,42.48
2024-05-09T07:33:48.399Z,42.52
2024-05-09T07:34:48.351Z,42.45
2024-05-09T07:35:48.407Z,42.46
2024-05-09T07:36:48.291Z,42.44
2024-05-09T07:37:48.415Z,42.41
2024-05-09T07:38:48.364Z,42.43
2024-05-09T07:39:48.338Z,42.41
2024-05-09T07:40:48.480Z,42.40
2024-05-09T07:41:48.427Z,42.36
2024-05-09T07:42:48.419Z,42.31
2024-05-09T07:43:48.510Z,42.35
2024-05-09T07:44:48.500Z,42.28
2024-05-09T07:45:53.289Z,42.23
2024-05-09T07:47:48.831Z,42.22
2024-05-09T07:49:13.635Z,42.20
2024-05-09T07:53:17.518Z,42.15
2024-05-09T07:53:35.028Z,42.11
2024-05-09T07:53:52.388Z,42.10
2024-05-09T07:54:49.705Z,42.14
2024-05-09T07:55:48.685Z,42.09
2024-05-09T07:56:48.608Z,42.06
2024-05-09T07:57:48.542Z,42.05
2024-05-09T07:58:48.532Z,42.05
2024-05-09T07:59:48.543Z,41.98
2024-05-09T08:00:48.649Z,42.06
2024-05-09T08:01:48.612Z,42.02
2024-05-09T08:02:48.585Z,42.05
2024-05-09T08:03:48.715Z,41.99
2024-05-09T08:04:48.575Z,42.02
2024-05-09T08:05:48.566Z,42.01
2024-05-09T08:06:48.555Z,41.95
2024-05-09T08:07:48.546Z,41.99
2024-05-09T08:08:48.562Z,41.92
2024-05-09T08:09:48.584Z,41.89
2024-05-09T08:10:48.582Z,41.88
2024-05-09T08:11:48.625Z,41.91
2024-05-09T08:12:48.587Z,41.94
2024-05-09T08:13:48.568Z,41.96
2024-05-09T08:14:48.539Z,41.93
2024-05-09T08:15:48.601Z,41.93
2024-05-09T08:16:48.550Z,41.96
2024-05-09T08:17:53.641Z,41.96
2024-05-09T08:18:48.660Z,41.96
2024-05-09T08:19:48.639Z,41.91
2024-05-09T08:20:48.547Z,41.92
2024-05-09T08:21:48.555Z,41.86
2024-05-09T08:22:48.543Z,41.80
2024-05-09T08:23:48.549Z,41.77
2024-05-09T08:24:48.578Z,41.80
2024-05-09T08:25:48.578Z,41.78
2024-05-09T08:26:48.595Z,41.73
2024-05-09T08:27:48.603Z,41.76
2024-05-09T08:28:48.559Z,41.76
2024-05-09T08:29:48.659Z,41.75
2024-05-09T08:30:48.864Z,41.75
2024-05-09T08:31:48.651Z,41.74
2024-05-09T08:32:53.726Z,41.67
2024-05-09T08:33:48.799Z,41.66
2024-05-09T08:34:48.604Z,41.72
2024-05-09T08:35:48.571Z,41.73
2024-05-09T08:36:48.614Z,41.66
2024-05-09T08:37:48.617Z,41.62
2024-05-09T08:38:48.587Z,41.60
2024-05-09T08:39:48.678Z,41.67
2024-05-09T08:40:48.772Z,41.66
2024-05-09T08:41:48.575Z,41.69
2024-05-09T08:42:48.604Z,41.63
2024-05-09T08:43:48.585Z,41.59
2024-05-09T08:44:48.588Z,41.57
2024-05-09T08:45:48.633Z,41.60
2024-05-09T08:46:48.604Z,41.56
2024-05-09T08:47:48.691Z,41.56
2024-05-09T08:48:48.705Z,41.61
2024-05-09T08:49:48.620Z,41.61
2024-05-09T08:50:48.650Z,41.64
2024-05-09T08:51:48.636Z,41.65
2024-05-09T08:52:48.586Z,41.66
2024-05-09T08:53:48.605Z,41.66
2024-05-09T08:54:48.645Z,41.66
2024-05-09T08:55:48.614Z,41.62
2024-05-09T08:56:48.668Z,41.60
2024-05-09T08:57:48.693Z,41.55
2024-05-09T08:58:48.733Z,41.54
2024-05-09T08:59:48.750Z,41.50
2024-05-09T09:00:49.533Z,41.48
2024-05-09T09:01:49.003Z,41.52
2024-05-09T09:02:49.007Z,41.46
2024-05-09T09:03:49.176Z,41.52
2024-05-09T09:04:49.015Z,41.64
2024-05-09T09:05:48.995Z,41.55
2024-05-09T09:06:49.054Z,41.53
2024-05-09T09:07:49.057Z,41.55
2024-05-09T09:08:49.027Z,41.58
2024-05-09T09:09:49.159Z,41.51
2024-05-09T09:10:49.193Z,41.50
2024-05-09T09:11:49.175Z,41.43
2024-05-09T09:12:59.194Z,41.57
2024-05-09T09:13:49.160Z,41.87
2024-05-09T09:14:49.165Z,41.78
2024-05-09T09:15:49.219Z,41.74
2024-05-09T09:16:49.151Z,41.62
2024-05-09T09:17:54.245Z,41.62
2024-05-09T09:18:49.303Z,41.62
2024-05-09T09:19:49.229Z,41.56
2024-05-09T09:20:49.168Z,41.55
2024-05-09T09:21:49.246Z,41.51
2024-05-09T09:22:54.159Z,41.49
2024-05-09T09:23:49.147Z,41.51
2024-05-09T09:24:49.175Z,41.48
2024-05-09T09:25:49.160Z,41.49
2024-05-09T09:26:49.178Z,41.45
2024-05-09T09:27:49.239Z,41.38
2024-05-09T09:28:49.176Z,41.36
2024-05-09T09:29:49.170Z,41.37
2024-05-09T09:30:49.324Z,41.42
2024-05-09T09:31:49.276Z,41.38
2024-05-09T09:32:49.432Z,41.34
2024-05-09T09:33:49.820Z,41.33
2024-05-09T09:34:49.519Z,41.30
2024-05-09T09:35:49.531Z,41.34
2024-05-09T09:36:49.671Z,41.32
2024-05-09T09:37:49.648Z,41.23
2024-05-09T09:38:49.701Z,41.26
2024-05-09T09:39:49.799Z,41.27
2024-05-09T09:40:50.230Z,41.27
2024-05-09T09:41:49.889Z,41.20
2024-05-09T09:42:50.538Z,41.18
2024-05-09T09:43:50.031Z,41.27
2024-05-09T09:44:58.144Z,41.20
2024-05-09T09:45:51.252Z,41.24
2024-05-09T09:46:50.118Z,41.26
2024-05-09T09:47:50.163Z,41.24
2024-05-09T09:48:50.141Z,41.18
2024-05-09T09:49:50.168Z,41.25
2024-05-09T09:50:50.095Z,41.26
2024-05-09T09:51:50.136Z,41.21
2024-05-09T09:52:50.099Z,41.16
2024-05-09T09:53:50.099Z,41.16
2024-05-09T09:54:50.191Z,41.25
2024-05-09T09:55:50.225Z,41.21
2024-05-09T09:56:50.301Z,41.21
2024-05-09T09:57:50.387Z,41.20
2024-05-09T09:58:50.429Z,41.12
2024-05-09T09:59:50.480Z,41.19
2024-05-09T10:00:50.713Z,41.19
2024-05-09T10:01:50.663Z,41.21
2024-05-09T10:02:50.715Z,41.16
2024-05-09T10:03:50.853Z,41.17
2024-05-09T10:04:50.878Z,41.09
2024-05-09T10:05:50.887Z,41.16
2024-05-09T10:06:50.930Z,41.18
2024-05-09T10:07:50.973Z,41.16
2024-05-09T10:08:51.027Z,41.17
2024-05-09T10:09:51.168Z,41.18
2024-05-09T10:10:51.286Z,41.16
2024-05-09T10:12:51.333Z,41.09
2024-05-09T10:13:51.340Z,41.15
2024-05-09T10:14:51.369Z,41.10
2024-05-09T10:15:51.876Z,41.13
2024-05-09T10:16:51.479Z,41.15
2024-05-09T10:17:56.635Z,41.15
2024-05-09T10:18:51.655Z,41.15
2024-05-09T10:19:51.734Z,41.15
2024-05-09T10:20:51.570Z,41.11
2024-05-09T10:21:51.587Z,41.11
2024-05-09T10:22:51.594Z,41.13
2024-05-09T10:23:51.616Z,41.13
2024-05-09T10:24:51.712Z,41.13
2024-05-09T10:25:51.731Z,41.14
2024-05-09T10:26:51.819Z,41.18
2024-05-09T10:27:51.880Z,41.15
2024-05-09T10:28:52.004Z,41.15
2024-05-09T10:29:51.954Z,41.16
2024-05-09T10:30:52.032Z,41.21
2024-05-09T10:31:52.096Z,41.19
2024-05-09T10:32:52.210Z,41.22
2024-05-09T10:33:53.069Z,41.21
2024-05-09T10:34:52.321Z,41.22
2024-05-09T10:35:52.306Z,41.24
2024-05-09T10:36:52.460Z,41.27
2024-05-09T10:37:52.417Z,41.25
2024-05-09T10:38:52.495Z,41.23
2024-05-09T10:39:52.551Z,41.21
2024-05-09T10:40:52.622Z,41.23
2024-05-09T10:41:52.632Z,41.22
2024-05-09T10:42:52.772Z,41.22
2024-05-09T10:43:52.748Z,41.21
2024-05-09T10:44:52.815Z,41.21
2024-05-09T10:45:52.938Z,41.21
2024-05-09T10:46:52.959Z,41.18
2024-05-09T10:47:53.173Z,41.19
2024-05-09T10:48:53.145Z,41.19
2024-05-09T10:49:53.188Z,41.21
2024-05-09T10:50:53.148Z,41.23
2024-05-09T10:51:53.223Z,41.20
2024-05-09T10:52:53.279Z,41.20
2024-05-09T10:53:53.301Z,41.16
2024-05-09T10:54:53.387Z,41.13
2024-05-09T10:55:53.403Z,41.14
2024-05-09T10:56:53.442Z,41.12
2024-05-09T10:57:53.743Z,41.13
2024-05-09T10:58:53.575Z,41.12
2024-05-09T10:59:53.607Z,41.10
2024-05-09T11:00:53.679Z,41.10
2024-05-09T11:01:53.808Z,41.12
2024-05-09T11:02:53.848Z,41.11
2024-05-09T11:03:54.010Z,41.09
2024-05-09T11:04:54.069Z,41.09
2024-05-09T11:05:54.010Z,41.06
2024-05-09T11:06:54.019Z,41.07
2024-05-09T11:07:53.983Z,41.08
2024-05-09T11:08:54.040Z,41.06
2024-05-09T11:09:54.234Z,41.09
2024-05-09T11:10:54.195Z,41.09
2024-05-09T11:11:54.244Z,41.09
2024-05-09T11:12:54.290Z,41.10
2024-05-09T11:13:54.275Z,41.11
2024-05-09T11:14:54.314Z,41.09
2024-05-09T11:15:54.394Z,41.08
2024-05-09T11:16:54.416Z,41.07
2024-05-09T11:17:54.577Z,41.03
2024-05-09T11:18:54.712Z,41.03
2024-05-09T11:19:54.603Z,41.02
2024-05-09T11:20:54.607Z,41.04
2024-05-09T11:21:54.766Z,41.03
2024-05-09T11:22:54.684Z,41.02
2024-05-09T11:23:54.768Z,41.03
2024-05-09T11:24:54.835Z,41.01
2024-05-09T11:25:54.850Z,41.00
2024-05-09T11:26:54.934Z,40.97
2024-05-09T11:27:55.031Z,41.01
2024-05-09T11:28:55.044Z,40.93
2024-05-09T11:29:55.041Z,40.97
2024-05-09T11:30:55.143Z,40.92
2024-05-09T11:31:55.154Z,40.95
2024-05-09T11:32:55.239Z,40.92
2024-05-09T11:33:55.334Z,40.86
2024-05-09T11:34:55.208Z,40.85
2024-05-09T11:35:55.236Z,40.86
2024-05-09T11:36:55.323Z,40.85
2024-05-09T11:37:55.341Z,40.82
2024-05-09T11:38:55.395Z,40.84
2024-05-09T11:39:55.448Z,40.85
2024-05-09T11:40:55.511Z,40.82
2024-05-09T11:41:55.509Z,40.84
2024-05-09T11:42:55.670Z,40.80
2024-05-09T11:43:55.599Z,40.80
2024-05-09T11:44:55.647Z,40.79
2024-05-09T11:45:55.765Z,40.82
2024-05-09T11:46:55.724Z,40.83
2024-05-09T11:47:55.905Z,40.79
2024-05-09T11:48:56.033Z,40.80
2024-05-09T11:49:55.957Z,40.81
2024-05-09T11:50:55.885Z,40.79
2024-05-09T11:51:56.036Z,40.79
2024-05-09T11:52:55.977Z,40.78
2024-05-09T11:53:56.010Z,40.72
2024-05-09T11:54:56.131Z,40.74
2024-05-09T11:55:56.093Z,40.73
2024-05-09T11:56:56.091Z,40.76
2024-05-09T11:57:56.267Z,40.74
2024-05-09T11:58:56.148Z,40.78
2024-05-09T11:59:56.174Z,40.80
2024-05-09T12:00:56.330Z,40.76
2024-05-09T12:01:56.376Z,40.72
2024-05-09T12:02:56.331Z,40.76
2024-05-09T12:03:56.537Z,40.77
2024-05-09T12:04:56.474Z,40.76
2024-05-09T12:05:56.446Z,40.76
2024-05-09T12:06:56.483Z,40.75
2024-05-09T12:07:56.468Z,40.80
2024-05-09T12:08:56.510Z,40.81
2024-05-09T12:09:56.525Z,40.81
2024-05-09T12:10:57.050Z,40.83
2024-05-09T12:11:56.615Z,40.86
2024-05-09T12:12:56.634Z,40.83
2024-05-09T12:13:56.655Z,40.82
2024-05-09T12:14:56.704Z,40.81
2024-05-09T12:15:56.828Z,40.86
2024-05-09T12:16:56.775Z,40.86
2024-05-09T12:17:59.082Z,40.87
2024-05-09T12:18:56.996Z,40.86
2024-05-09T12:19:56.844Z,40.85
2024-05-09T12:20:56.831Z,40.83
2024-05-09T12:21:56.933Z,40.81
2024-05-09T12:22:56.858Z,40.87
2024-05-09T12:23:56.882Z,40.88
2024-05-09T12:24:56.849Z,40.86
2024-05-09T12:25:56.847Z,40.82
2024-05-09T12:26:56.840Z,40.82
2024-05-09T12:27:56.877Z,40.80
2024-05-09T12:28:56.840Z,40.82
2024-05-09T12:29:56.840Z,40.86
2024-05-09T12:30:56.911Z,40.83
2024-05-09T12:31:56.886Z,40.80
2024-05-09T12:32:56.906Z,40.76
2024-05-09T12:33:56.994Z,40.80
2024-05-09T12:34:56.862Z,40.76
2024-05-09T12:35:56.895Z,40.77
2024-05-09T12:36:56.904Z,40.70
2024-05-09T12:37:56.882Z,40.73
2024-05-09T12:38:56.887Z,40.73
2024-05-09T12:39:56.945Z,40.70
2024-05-09T12:40:57.036Z,40.68
2024-05-09T12:41:56.997Z,40.64
2024-05-09T12:42:57.043Z,40.61
2024-05-09T12:43:57.044Z,40.58
2024-05-09T12:44:57.090Z,40.59
2024-05-09T12:45:57.151Z,40.56
2024-05-09T12:46:57.159Z,40.51
2024-05-09T12:47:57.313Z,40.59
2024-05-09T12:48:57.331Z,40.58
2024-05-09T12:49:57.298Z,40.55
2024-05-09T12:50:57.358Z,40.53
2024-05-09T12:51:57.380Z,40.55
2024-05-09T12:52:57.337Z,40.50
2024-05-09T12:53:57.360Z,40.49
2024-05-09T12:54:57.369Z,40.52
2024-05-09T12:56:01.827Z,40.49
2024-05-09T12:56:58.393Z,40.52
2024-05-09T12:57:57.479Z,40.48